Flugplatz Hundheim (UL)

Hier findest Du alle Informationen zum Flugplatz Hundheim (UL).

Informationen für Piloten zum Flugplatz Hundheim

Hier findest Du alle relevanten Informationen, die Du als Pilot benötigst, um Hundheim anzufliegen.

Flugplatz: Hundheim ICAO-Code: UL Flugplatz
Frequenz Turm: 120,975 Mhz GAFOR Gebiet: -
Frequenz Ground: 120,975 Mhz Mogas: nein
Platzrunde: SO 2200 ft Landegebühr: -
Platzhöhe: Sunrise: 03:40 Uhr UTC
Pisten: 04/22 - 400 m x 30 m, GRAS Sunset: 19:32 Uhr UTC

Mitglieder, die in Hundheim fliegen

Flugwetter am Flugplatz Hundheim

Die METAR Information stammen aus EDFH (14.32 km entfernt).

METAR Code:
2019/07/19 16:20
EDFH 191620Z 24009KT 210V270 9999 FEW040 21/12 Q1016

Flugschulen am Flugplatz Hundheim

Am Flugplatz Hundheim gibt es leider keine Flugschule.

Benachbarte Flugplätze und Flugschulen

Es gibt 17 weitere Flugplätze in einem Umkreis von 50 km um den Flugplatz Hundheim.

Jetzt anmelden

Passwort vergessen

Umfrage Archiv

Werdet Ihr Euer UL im Zuge der 600 kg MTOW auflasten lassen?

Ja, bei Kosten bis max. 5.000 Euro
53.1 %
Nein
22.4 %
Ja, unabhängig von den Kosten
10.2 %
Ja, bei Kosten bis max. 7.500 Euro
8.2 %
Ja, bei Kosten bis max. 10.000 Euro
6.1 %
Stimmen: 49 | Diskussion
Anzeige: Roland Aircraft
Statistik Alle Mitglieder

Aktuell sind 53 Besucher online, davon 3 Mitglieder und 50 Gäste.


Mitglieder online:
Tarutino  Vollthrottle  Hoppsing 

Anzeige: VFR Sprechfunk Simulator


Anzeige: Pocket FMS